Time;durP1;ratioP1;P1;durP2;ratioP2;P2;SDS_P1;SDS_P2;PMS_P1;PMS_P2;Temp;Humidity;BMP_temperature;BMP_pressure;BME280_temperature;BME280_humidity;BME280_pressure;Samples;Min_cycle;Max_cycle;Signal;HPM_P1;HPM_P2
2023/08/27 00:01:13;;;;;;;4.45;3.95;;;;;;;12.95;100.00;100928.47;4948851;28;20194;-47
2023/08/27 00:03:38;;;;;;;2.58;2.38;;;;;;;13.04;100.00;100929.84;4942312;28;20167;-49
2023/08/27 00:06:04;;;;;;;3.05;2.85;;;;;;;13.04;100.00;100924.47;4944704;28;20203;-47
2023/08/27 00:08:29;;;;;;;3.40;3.10;;;;;;;12.95;100.00;100918.56;4945559;28;20583;-46
2023/08/27 00:10:59;;;;;;;2.85;2.63;;;;;;;12.88;100.00;100921.59;4936530;28;20634;-54
2023/08/27 00:13:25;;;;;;;3.40;3.10;;;;;;;12.73;100.00;100907.94;4937988;28;20174;-46
2023/08/27 00:15:51;;;;;;;3.83;3.50;;;;;;;12.63;100.00;100903.91;4939175;28;20191;-46
2023/08/27 00:18:16;;;;;;;5.13;3.35;;;;;;;12.58;100.00;100908.63;4944742;28;20571;-46
2023/08/27 00:20:42;;;;;;;3.40;3.13;;;;;;;12.39;100.00;100908.56;4943380;28;20219;-51
2023/08/27 00:23:11;;;;;;;3.75;3.45;;;;;;;12.41;100.00;100905.81;4943032;28;20182;-52
2023/08/27 00:25:37;;;;;;;7.43;4.22;;;;;;;12.42;100.00;100899.50;4941320;28;20183;-47
2023/08/27 00:28:03;;;;;;;4.35;3.97;;;;;;;12.29;100.00;100902.75;4938191;28;20170;-48
2023/08/27 00:30:29;;;;;;;3.85;3.55;;;;;;;12.44;100.00;100892.25;4939703;29;20202;-49
2023/08/27 00:32:54;;;;;;;5.68;4.00;;;;;;;12.49;100.00;100892.94;4939625;28;20234;-47
2023/08/27 00:35:20;;;;;;;4.65;4.10;;;;;;;12.54;100.00;100882.84;4947629;28;20591;-48
2023/08/27 00:37:45;;;;;;;5.18;4.68;;;;;;;12.60;100.00;100882.56;4937755;28;20657;-50
2023/08/27 00:40:13;;;;;;;4.93;4.40;;;;;;;12.63;100.00;100881.53;4946587;28;20285;-46
2023/08/27 00:42:39;;;;;;;5.35;4.30;;;;;;;12.60;100.00;100879.88;4948069;28;20557;-47
2023/08/27 00:45:06;;;;;;;5.40;4.90;;;;;;;12.51;100.00;100883.00;4943111;28;20179;-47
2023/08/27 00:47:35;;;;;;;4.82;4.43;;;;;;;12.34;100.00;100884.59;4943778;28;20175;-48
2023/08/27 00:50:02;;;;;;;5.28;4.57;;;;;;;12.49;100.00;100890.25;4943594;28;20603;-47
2023/08/27 00:52:28;;;;;;;4.90;4.45;;;;;;;12.56;100.00;100891.69;4938262;28;20186;-47
2023/08/27 00:54:55;;;;;;;5.63;5.00;;;;;;;12.54;100.00;100890.91;4947546;28;20642;-47
2023/08/27 00:57:20;;;;;;;4.75;4.30;;;;;;;12.59;100.00;100891.56;4942228;28;20187;-48
2023/08/27 00:59:48;;;;;;;4.70;4.30;;;;;;;12.48;100.00;100891.16;4941816;28;20318;-48
2023/08/27 01:02:15;;;;;;;6.38;4.57;;;;;;;12.54;100.00;100881.00;4948164;28;20170;-49
2023/08/27 01:04:40;;;;;;;4.90;4.50;;;;;;;12.45;100.00;100885.94;4945975;28;20190;-47
2023/08/27 01:07:19;;;;;;;4.05;3.75;;;;;;;12.51;100.00;100883.84;4935704;29;20184;-48
2023/08/27 01:10:22;;;;;;;4.78;4.00;;;;;;;12.42;100.00;100878.00;4932962;29;20221;-49
2023/08/27 01:13:01;;;;;;;4.25;3.90;;;;;;;12.52;100.00;100863.22;4933592;28;20213;-54
2023/08/27 01:15:27;;;;;;;5.85;4.32;;;;;;;12.56;100.00;100867.50;4937487;28;20198;-49
2023/08/27 01:17:55;;;;;;;4.88;4.38;;;;;;;12.61;100.00;100853.84;4947166;28;20179;-47
2023/08/27 01:20:22;;;;;;;5.82;4.85;;;;;;;12.51;100.00;100864.19;4943216;28;20688;-48
2023/08/27 01:22:47;;;;;;;7.07;5.30;;;;;;;12.45;100.00;100859.06;4944052;28;20187;-47
2023/08/27 01:25:18;;;;;;;4.60;4.18;;;;;;;12.53;100.00;100841.66;4950986;28;21129;-47
2023/08/27 01:28:14;;;;;;;5.40;4.88;;;;;;;12.46;100.00;100860.81;4943700;28;20191;-49
2023/08/27 01:31:24;;;;;;;7.38;4.57;;;;;;;12.46;100.00;100848.28;4973457;28;20218;-47
2023/08/27 01:33:54;;;;;;;5.13;4.53;;;;;;;12.43;100.00;100842.16;4947422;28;20197;-47
2023/08/27 01:36:20;;;;;;;5.90;4.85;;;;;;;12.33;100.00;100839.00;4945527;28;20222;-47
2023/08/27 01:38:46;;;;;;;5.70;5.20;;;;;;;12.25;100.00;100843.84;4947293;28;20207;-48
2023/08/27 01:41:11;;;;;;;4.55;4.15;;;;;;;12.33;100.00;100839.88;4943900;28;20218;-47
2023/08/27 01:43:37;;;;;;;4.80;4.40;;;;;;;12.32;100.00;100843.50;4953469;28;20265;-46
2023/08/27 01:46:03;;;;;;;4.97;4.47;;;;;;;12.29;100.00;100845.47;4941878;28;20184;-50
2023/08/27 01:48:29;;;;;;;6.80;5.40;;;;;;;12.21;100.00;100861.91;4939675;28;20179;-46
2023/08/27 01:50:54;;;;;;;5.95;5.45;;;;;;;12.16;100.00;100874.69;4953103;28;20187;-47
2023/08/27 01:53:21;;;;;;;7.88;5.30;;;;;;;12.11;100.00;100871.31;4951770;29;20186;-45
2023/08/27 01:55:47;;;;;;;6.45;5.43;;;;;;;12.22;100.00;100871.72;4956944;28;20493;-48
2023/08/27 01:58:12;;;;;;;6.50;5.70;;;;;;;12.32;100.00;100880.25;4944241;29;20704;-43
2023/08/27 02:00:38;;;;;;;8.07;6.97;;;;;;;12.38;100.00;100888.03;4952052;28;20226;-45
2023/08/27 02:03:05;;;;;;;7.60;6.90;;;;;;;12.43;100.00;100895.88;4951719;28;20583;-47
2023/08/27 02:05:30;;;;;;;8.52;7.55;;;;;;;12.45;100.00;100896.69;4951711;29;20256;-44
2023/08/27 02:07:56;;;;;;;10.32;9.05;;;;;;;12.53;100.00;100887.34;4949529;28;20213;-45
2023/08/27 02:10:21;;;;;;;10.38;9.30;;;;;;;12.59;100.00;100891.56;4940958;28;20199;-41
2023/08/27 02:12:47;;;;;;;9.88;8.63;;;;;;;12.63;100.00;100894.97;4945783;28;20201;-40
2023/08/27 02:15:12;;;;;;;10.30;9.38;;;;;;;12.66;100.00;100873.31;4940606;28;20618;-41
2023/08/27 02:17:38;;;;;;;9.02;8.13;;;;;;;12.70;100.00;100881.22;4945120;28;20190;-42
2023/08/27 02:20:07;;;;;;;10.52;8.85;;;;;;;12.76;100.00;100869.28;4947121;28;20203;-41
2023/08/27 02:22:35;;;;;;;10.18;9.23;;;;;;;12.77;100.00;100860.28;4944562;28;20558;-41
2023/08/27 02:25:00;;;;;;;9.63;8.75;;;;;;;12.84;100.00;100868.94;4947403;28;20194;-41
2023/08/27 02:27:26;;;;;;;9.82;8.85;;;;;;;12.90;100.00;100871.31;4943900;28;20210;-40
2023/08/27 02:29:52;;;;;;;11.05;9.93;;;;;;;12.94;100.00;100862.16;4940799;28;20257;-41
2023/08/27 02:32:17;;;;;;;10.45;9.45;;;;;;;12.98;100.00;100858.38;4940182;28;20208;-41
2023/08/27 02:34:43;;;;;;;9.35;8.45;;;;;;;12.99;100.00;100844.00;4948578;28;20297;-41
2023/08/27 02:37:08;;;;;;;9.43;8.55;;;;;;;13.05;100.00;100841.00;4940393;28;20187;-42
2023/08/27 02:39:34;;;;;;;10.63;9.50;;;;;;;13.02;100.00;100832.22;4936614;28;20598;-39
2023/08/27 02:41:59;;;;;;;9.70;8.82;;;;;;;13.08;100.00;100815.78;4936755;28;20195;-41
2023/08/27 02:44:25;;;;;;;10.13;8.20;;;;;;;13.16;100.00;100803.69;4944221;28;20258;-41
2023/08/27 02:46:52;;;;;;;9.40;8.50;;;;;;;13.04;100.00;100801.59;4938157;28;20187;-41
2023/08/27 02:49:19;;;;;;;8.38;7.43;;;;;;;13.01;100.00;100806.25;4942699;28;20570;-41
2023/08/27 02:51:45;;;;;;;7.82;6.30;;;;;;;13.10;100.00;100790.53;4938619;28;20270;-39
2023/08/27 02:54:10;;;;;;;8.70;7.85;;;;;;;13.09;100.00;100796.00;4944908;28;20428;-40
2023/08/27 02:56:36;;;;;;;8.48;7.75;;;;;;;13.01;100.00;100792.81;4939550;28;20282;-41
2023/08/27 02:59:02;;;;;;;8.65;7.75;;;;;;;13.05;100.00;100786.31;4948801;28;20236;-40
2023/08/27 03:01:27;;;;;;;7.10;6.40;;;;;;;13.09;100.00;100779.84;4940675;28;20191;-39
2023/08/27 03:03:53;;;;;;;6.72;6.13;;;;;;;13.10;100.00;100782.47;4938312;28;20179;-42
2023/08/27 03:06:18;;;;;;;6.28;5.78;;;;;;;13.15;100.00;100784.94;4939889;28;20720;-41
2023/08/27 03:08:45;;;;;;;8.50;7.80;;;;;;;12.99;100.00;100785.69;4940810;28;20237;-39
2023/08/27 03:11:11;;;;;;;7.60;6.90;;;;;;;12.87;100.00;100782.72;4943993;28;20534;-40
2023/08/27 03:13:37;;;;;;;8.43;7.55;;;;;;;12.83;100.00;100782.00;4942517;28;20193;-43
2023/08/27 03:16:03;;;;;;;11.13;7.80;;;;;;;12.73;100.00;100789.66;4950058;28;20206;-40
2023/08/27 03:18:29;;;;;;;7.90;6.78;;;;;;;12.76;100.00;100816.38;4940962;28;20206;-43
2023/08/27 03:20:55;;;;;;;8.02;7.32;;;;;;;12.76;100.00;100821.75;4940172;28;20187;-41
2023/08/27 03:23:21;;;;;;;8.77;7.88;;;;;;;12.73;100.00;100827.28;4950863;28;20878;-41
2023/08/27 03:25:50;;;;;;;9.77;8.10;;;;;;;12.75;100.00;100822.72;4937589;28;20187;-39
2023/08/27 03:28:16;;;;;;;8.73;7.97;;;;;;;12.81;100.00;100807.22;4936525;28;20774;-43
2023/08/27 03:30:41;;;;;;;8.27;7.47;;;;;;;12.87;100.00;100793.47;4939606;28;20211;-40
2023/08/27 03:33:07;;;;;;;11.20;8.43;;;;;;;12.85;100.00;100792.69;4939178;28;20186;-41
2023/08/27 03:35:33;;;;;;;8.75;7.95;;;;;;;12.81;100.00;100783.00;4943039;28;20222;-41
2023/08/27 03:37:59;;;;;;;8.35;7.60;;;;;;;12.88;100.00;100793.41;4936489;28;20291;-40
2023/08/27 03:40:24;;;;;;;10.75;9.35;;;;;;;12.84;100.00;100788.25;4941872;28;20688;-40
2023/08/27 03:42:50;;;;;;;11.00;10.00;;;;;;;12.79;100.00;100807.31;4937332;28;20294;-40
2023/08/27 03:45:16;;;;;;;11.88;10.65;;;;;;;12.78;100.00;100789.41;4939780;28;20199;-41
2023/08/27 03:47:41;;;;;;;12.15;10.45;;;;;;;12.79;100.00;100793.88;4943494;28;20190;-40
2023/08/27 03:50:08;;;;;;;10.85;9.85;;;;;;;12.85;100.00;100790.84;4940374;28;20203;-39
2023/08/27 03:52:34;;;;;;;12.52;10.93;;;;;;;12.86;100.00;100791.75;4936699;28;20203;-39
2023/08/27 03:55:01;;;;;;;13.43;10.88;;;;;;;12.82;100.00;100792.84;4941707;28;20179;-38
2023/08/27 03:57:27;;;;;;;13.88;11.35;;;;;;;12.86;100.00;100784.56;4940061;28;20183;-41
2023/08/27 03:59:52;;;;;;;11.60;10.50;;;;;;;12.91;100.00;100777.13;4939927;28;20638;-41
2023/08/27 04:02:18;;;;;;;11.93;10.70;;;;;;;12.93;100.00;100766.28;4935114;28;20230;-40
2023/08/27 04:04:43;;;;;;;11.15;10.02;;;;;;;13.00;100.00;100767.72;4936942;28;20381;-40
2023/08/27 04:07:09;;;;;;;10.70;9.70;;;;;;;13.03;100.00;100769.41;4938262;28;20190;-41
2023/08/27 04:09:35;;;;;;;10.27;9.25;;;;;;;13.02;100.00;100770.34;4939967;28;20210;-41
2023/08/27 04:12:01;;;;;;;10.68;9.68;;;;;;;12.91;100.00;100763.69;4937733;28;20242;-42
2023/08/27 04:14:27;;;;;;;10.68;8.93;;;;;;;12.95;100.00;100761.72;4938065;28;20185;-40
2023/08/27 04:16:52;;;;;;;9.25;8.35;;;;;;;12.91;100.00;100765.50;4925267;28;20203;-42
2023/08/27 04:19:18;;;;;;;10.60;9.48;;;;;;;12.84;100.00;100772.13;4939360;28;20215;-43
2023/08/27 04:21:44;;;;;;;9.00;8.23;;;;;;;12.86;100.00;100772.94;4940049;28;20327;-40
2023/08/27 04:24:09;;;;;;;11.05;10.13;;;;;;;12.78;100.00;100784.03;4945132;28;20182;-43
2023/08/27 04:26:35;;;;;;;12.90;9.55;;;;;;;12.72;100.00;100777.13;4942338;28;20278;-42
2023/08/27 04:29:00;;;;;;;10.38;9.23;;;;;;;12.75;100.00;100771.63;4934458;28;20206;-40
2023/08/27 04:31:26;;;;;;;9.70;8.77;;;;;;;12.78;100.00;100782.22;4936081;28;20611;-42
2023/08/27 04:33:52;;;;;;;10.52;9.43;;;;;;;12.73;100.00;100783.41;4939737;28;20753;-41
2023/08/27 04:36:18;;;;;;;9.60;8.60;;;;;;;12.83;100.00;100773.06;4934869;28;20270;-40
2023/08/27 04:38:43;;;;;;;9.68;8.77;;;;;;;12.88;100.00;100771.91;4925862;28;20210;-41
2023/08/27 04:41:09;;;;;;;9.73;8.82;;;;;;;12.90;100.00;100767.31;4938714;28;20194;-39
2023/08/27 04:43:34;;;;;;;10.48;9.48;;;;;;;12.89;100.00;100767.38;4939495;28;20202;-41
2023/08/27 04:46:00;;;;;;;9.45;8.45;;;;;;;12.91;100.00;100762.81;4934778;28;20186;-41
2023/08/27 04:48:26;;;;;;;9.30;8.48;;;;;;;12.89;100.00;100762.00;4942618;28;20187;-40
2023/08/27 04:50:52;;;;;;;9.77;8.90;;;;;;;12.97;100.00;100768.75;4927901;28;20196;-40
2023/08/27 04:53:17;;;;;;;8.65;7.85;;;;;;;13.00;100.00;100762.34;4942048;28;20217;-40
2023/08/27 04:55:43;;;;;;;10.50;9.05;;;;;;;13.04;100.00;100761.25;4946787;28;20179;-41
2023/08/27 04:58:09;;;;;;;9.45;8.55;;;;;;;13.14;100.00;100770.63;4944301;28;20685;-41
2023/08/27 05:00:34;;;;;;;10.32;9.25;;;;;;;13.19;100.00;100773.94;4939241;28;20289;-41
2023/08/27 05:03:02;;;;;;;9.23;8.32;;;;;;;13.20;100.00;100775.66;4945586;28;20326;-42
2023/08/27 05:05:27;;;;;;;8.70;7.90;;;;;;;13.27;100.00;100772.69;4943065;28;20195;-42
2023/08/27 05:07:54;;;;;;;10.57;9.57;;;;;;;13.23;100.00;100774.66;4946409;28;20234;-39
2023/08/27 05:10:20;;;;;;;8.95;7.85;;;;;;;13.27;100.00;100770.00;4941344;28;20211;-40
2023/08/27 05:12:46;;;;;;;9.20;8.30;;;;;;;13.36;100.00;100778.53;4944778;28;20187;-39
2023/08/27 05:15:11;;;;;;;9.23;8.32;;;;;;;13.37;100.00;100784.75;4947524;28;20573;-41
2023/08/27 05:17:37;;;;;;;9.65;8.73;;;;;;;13.29;100.00;100779.75;4942016;28;20234;-41
2023/08/27 05:20:04;;;;;;;10.32;9.27;;;;;;;13.30;100.00;100794.09;4939713;28;20708;-42
2023/08/27 05:22:30;;;;;;;9.80;8.70;;;;;;;13.45;100.00;100795.16;4941438;28;20179;-42
2023/08/27 05:24:55;;;;;;;9.90;8.05;;;;;;;13.55;100.00;100804.47;4943559;28;20175;-41
2023/08/27 05:27:21;;;;;;;9.68;8.38;;;;;;;13.63;100.00;100796.88;4939709;28;20231;-41
2023/08/27 05:29:47;;;;;;;8.18;7.47;;;;;;;13.99;100.00;100802.19;4948418;28;20290;-40
2023/08/27 05:32:12;;;;;;;8.60;7.75;;;;;;;14.25;100.00;100809.81;4941900;28;20223;-41
2023/08/27 05:34:38;;;;;;;8.93;8.02;;;;;;;14.37;100.00;100812.72;4940231;28;20191;-41
2023/08/27 05:37:05;;;;;;;7.88;7.18;;;;;;;14.57;100.00;100818.88;4938169;28;20183;-40
2023/08/27 05:39:33;;;;;;;7.40;6.70;;;;;;;14.80;100.00;100814.91;4946708;28;20214;-40
2023/08/27 05:41:58;;;;;;;9.27;7.28;;;;;;;15.19;100.00;100806.34;4942994;28;20172;-41
2023/08/27 05:44:24;;;;;;;7.63;6.85;;;;;;;15.61;100.00;100804.81;4941944;28;20281;-40
2023/08/27 05:46:50;;;;;;;6.20;5.65;;;;;;;15.99;100.00;100804.34;4936187;28;20191;-40
2023/08/27 05:49:17;;;;;;;6.28;5.65;;;;;;;15.86;100.00;100795.25;4958227;28;20190;-43
2023/08/27 05:51:45;;;;;;;7.55;5.80;;;;;;;15.87;100.00;100791.56;4943629;28;20190;-40
2023/08/27 05:54:10;;;;;;;5.82;5.30;;;;;;;15.91;100.00;100792.28;4943341;28;20230;-39
2023/08/27 05:56:37;;;;;;;5.63;5.22;;;;;;;15.87;100.00;100796.97;4943896;28;20595;-39
2023/08/27 05:59:02;;;;;;;8.13;5.40;;;;;;;15.85;100.00;100777.28;4945618;28;20214;-41
2023/08/27 06:01:28;;;;;;;5.45;4.93;;;;;;;15.94;100.00;100784.84;4941044;28;20561;-41
2023/08/27 06:03:54;;;;;;;5.78;4.97;;;;;;;16.18;100.00;100777.06;4942832;28;20250;-41
2023/08/27 06:06:20;;;;;;;5.50;5.07;;;;;;;16.35;100.00;100770.56;4939432;28;20176;-41
2023/08/27 06:08:46;;;;;;;5.88;4.90;;;;;;;16.17;100.00;100774.44;4940884;28;20218;-39
2023/08/27 06:11:11;;;;;;;5.38;4.82;;;;;;;16.04;100.00;100782.44;4949538;28;20170;-40
2023/08/27 06:13:37;;;;;;;6.88;5.18;;;;;;;15.71;100.00;100764.63;4941170;28;20570;-40
2023/08/27 06:16:03;;;;;;;6.85;5.10;;;;;;;15.45;100.00;100755.38;4939647;28;20211;-40
2023/08/27 06:18:29;;;;;;;5.18;4.68;;;;;;;15.40;100.00;100758.34;4941771;28;20207;-42
2023/08/27 06:20:55;;;;;;;5.32;4.82;;;;;;;15.49;100.00;100753.38;4939376;28;20187;-40
2023/08/27 06:23:21;;;;;;;5.13;4.43;;;;;;;15.59;100.00;100760.81;4941671;28;20187;-41
2023/08/27 06:25:47;;;;;;;4.93;4.43;;;;;;;15.57;100.00;100760.03;4947289;28;20239;-40
2023/08/27 06:28:15;;;;;;;5.25;4.75;;;;;;;15.77;100.00;100761.56;4918394;29;20653;-40
2023/08/27 06:30:41;;;;;;;6.80;5.40;;;;;;;16.19;100.00;100753.59;4947699;28;20211;-41
2023/08/27 06:33:09;;;;;;;5.22;4.72;;;;;;;16.59;100.00;100741.09;4942119;28;20286;-39
2023/08/27 06:35:36;;;;;;;4.70;4.30;;;;;;;16.89;100.00;100743.66;4935161;28;20199;-41
2023/08/27 06:38:02;;;;;;;6.18;4.75;;;;;;;17.03;100.00;100736.44;4939922;28;20901;-40
2023/08/27 06:40:29;;;;;;;4.82;4.43;;;;;;;17.15;100.00;100737.50;4937622;28;20320;-40
2023/08/27 06:42:56;;;;;;;4.45;3.72;;;;;;;17.36;100.00;100743.28;4940164;28;20193;-40
2023/08/27 06:45:22;;;;;;;6.50;4.22;;;;;;;17.29;100.00;100729.28;4945876;28;20696;-38
2023/08/27 06:47:47;;;;;;;5.32;3.70;;;;;;;17.39;100.00;100725.00;4938696;28;20179;-41
2023/08/27 06:50:13;;;;;;;4.88;3.60;;;;;;;17.77;99.80;100720.59;4937964;28;20195;-41
2023/08/27 06:52:39;;;;;;;3.53;3.20;;;;;;;17.82;97.59;100710.31;4942073;28;20233;-40
2023/08/27 06:55:04;;;;;;;5.45;3.00;;;;;;;17.87;97.08;100711.75;4937188;28;20246;-41
2023/08/27 06:57:30;;;;;;;3.20;2.80;;;;;;;17.75;96.18;100712.56;4943219;28;20190;-40
2023/08/27 06:59:55;;;;;;;5.20;2.92;;;;;;;17.53;95.66;100710.47;4941216;28;20227;-40
2023/08/27 07:02:21;;;;;;;3.42;2.70;;;;;;;17.07;97.33;100716.34;4940773;28;20183;-41
2023/08/27 07:04:47;;;;;;;5.78;2.85;;;;;;;17.03;98.29;100720.22;4940372;28;20276;-43
2023/08/27 07:07:13;;;;;;;3.08;2.78;;;;;;;16.98;100.00;100722.38;4943134;28;20182;-43
2023/08/27 07:09:38;;;;;;;4.32;2.33;;;;;;;17.23;100.00;100724.28;4937325;28;20678;-41
2023/08/27 07:12:05;;;;;;;3.28;2.97;;;;;;;17.44;100.00;100717.41;4935456;28;20178;-39
2023/08/27 07:14:31;;;;;;;3.35;2.92;;;;;;;17.41;99.07;100719.47;4937112;28;20262;-40
2023/08/27 07:16:56;;;;;;;5.18;2.83;;;;;;;17.32;97.17;100711.94;4937020;28;20175;-40
2023/08/27 07:19:22;;;;;;;7.78;3.40;;;;;;;17.48;96.58;100715.34;4933592;28;20298;-41
2023/08/27 07:21:48;;;;;;;3.80;3.05;;;;;;;17.42;96.19;100713.94;4930900;28;20194;-41
2023/08/27 07:24:13;;;;;;;3.95;2.92;;;;;;;18.40;95.87;100703.44;4942241;28;20171;-40
2023/08/27 07:26:40;;;;;;;3.50;2.50;;;;;;;18.79;92.93;100697.94;4928266;29;20191;-41
2023/08/27 07:29:05;;;;;;;2.53;2.30;;;;;;;19.29;88.43;100672.34;4947417;28;20208;-41
2023/08/27 07:31:31;;;;;;;2.67;2.28;;;;;;;19.34;85.12;100667.41;4937506;28;20285;-42
2023/08/27 07:33:57;;;;;;;4.18;2.00;;;;;;;19.41;82.93;100653.34;4941112;28;20263;-42
2023/08/27 07:36:22;;;;;;;3.25;2.17;;;;;;;19.57;82.05;100634.88;4940502;28;20294;-41
2023/08/27 07:38:48;;;;;;;3.05;1.95;;;;;;;19.53;81.78;100639.66;4941241;28;20210;-41
2023/08/27 07:41:14;;;;;;;2.92;2.08;;;;;;;19.06;80.38;100638.78;4939741;28;20202;-41
2023/08/27 07:43:40;;;;;;;1.80;1.70;;;;;;;19.05;81.06;100636.22;4938359;28;20363;-40
2023/08/27 07:46:06;;;;;;;4.63;2.00;;;;;;;19.08;82.03;100634.13;4931949;28;20646;-42
2023/08/27 07:48:32;;;;;;;2.63;1.60;;;;;;;19.65;81.10;100637.81;4945263;28;20940;-41
2023/08/27 07:50:58;;;;;;;2.28;1.63;;;;;;;19.61;79.81;100625.47;4939152;28;20238;-39
2023/08/27 07:53:24;;;;;;;2.67;1.63;;;;;;;19.38;78.18;100612.84;4945254;28;20193;-41
2023/08/27 07:55:53;;;;;;;3.28;1.67;;;;;;;19.06;79.96;100632.50;4937367;28;20186;-41
2023/08/27 07:58:19;;;;;;;4.95;2.05;;;;;;;19.31;79.81;100639.63;4944205;28;20208;-42
2023/08/27 08:00:44;;;;;;;3.10;1.55;;;;;;;19.87;79.28;100642.44;4939327;28;20612;-40
2023/08/27 08:03:10;;;;;;;2.58;1.58;;;;;;;20.54;77.99;100640.66;4940144;28;20293;-40
2023/08/27 08:05:35;;;;;;;3.20;1.60;;;;;;;20.54;75.84;100621.59;4938403;28;20197;-41
2023/08/27 08:08:01;;;;;;;2.22;1.70;;;;;;;20.65;74.88;100599.81;4938774;28;20278;-39
2023/08/27 08:10:26;;;;;;;1.92;1.80;;;;;;;20.13;75.48;100609.56;4939044;28;20211;-41
2023/08/27 08:12:52;;;;;;;2.50;1.60;;;;;;;19.71;75.07;100621.06;4938552;28;20286;-41
2023/08/27 08:15:18;;;;;;;2.15;1.30;;;;;;;19.57;75.47;100613.13;4937303;28;20254;-39
2023/08/27 08:17:44;;;;;;;2.13;1.40;;;;;;;19.68;76.01;100626.72;4942304;28;20207;-42
2023/08/27 08:20:10;;;;;;;2.58;1.23;;;;;;;19.89;76.11;100632.31;4943797;28;20209;-41
2023/08/27 08:22:36;;;;;;;2.85;1.48;;;;;;;19.99;76.28;100629.72;4938896;28;20709;-41
2023/08/27 08:25:01;;;;;;;1.67;1.58;;;;;;;19.89;76.11;100642.31;4935573;28;20175;-41
2023/08/27 08:27:27;;;;;;;1.77;1.00;;;;;;;19.69;75.75;100639.34;4944970;28;20181;-40
2023/08/27 08:29:54;;;;;;;1.83;1.25;;;;;;;19.43;75.90;100651.38;4940604;28;20195;-41
2023/08/27 08:32:20;;;;;;;3.08;1.30;;;;;;;19.46;76.66;100656.56;4939381;28;20257;-40
2023/08/27 08:34:46;;;;;;;1.48;1.23;;;;;;;19.40;78.31;100657.94;4936855;28;20195;-41
2023/08/27 08:37:11;;;;;;;1.63;1.20;;;;;;;19.72;77.49;100666.31;4942262;28;20560;-39
2023/08/27 08:39:37;;;;;;;1.27;1.10;;;;;;;19.85;75.40;100658.00;4941839;28;20228;-43
2023/08/27 08:42:14;;;;;;;1.35;1.10;;;;;;;19.68;74.36;100653.91;4940783;28;20262;-41
2023/08/27 08:44:53;;;;;;;1.25;1.05;;;;;;;19.73;73.74;100657.16;4935190;28;20193;-41
2023/08/27 08:47:21;;;;;;;2.25;1.02;;;;;;;19.80;73.03;100651.22;4937629;28;20529;-41
2023/08/27 08:49:52;;;;;;;0.80;0.80;;;;;;;19.52;72.11;100632.50;4940270;28;20210;-41
2023/08/27 08:52:21;;;;;;;1.27;0.90;;;;;;;19.33;70.63;100624.09;4938016;28;20554;-40
2023/08/27 08:54:53;;;;;;;3.97;0.98;;;;;;;19.30;71.95;100635.16;4939460;28;20191;-40
2023/08/27 08:57:19;;;;;;;1.15;0.95;;;;;;;19.53;72.07;100631.53;4938826;28;20174;-42
2023/08/27 08:59:47;;;;;;;2.78;1.10;;;;;;;19.72;72.84;100643.66;4937960;28;20222;-40
2023/08/27 09:02:13;;;;;;;1.50;1.00;;;;;;;20.02;73.70;100632.19;4939439;28;20289;-41
2023/08/27 09:04:40;;;;;;;3.42;1.15;;;;;;;20.13;73.11;100624.00;4936007;28;20191;-43
2023/08/27 09:07:06;;;;;;;2.15;0.95;;;;;;;20.17;72.24;100603.72;4941366;28;20611;-40
2023/08/27 09:09:32;;;;;;;1.70;0.80;;;;;;;19.87;70.62;100598.06;4942616;28;20187;-40
2023/08/27 09:11:59;;;;;;;0.88;0.70;;;;;;;20.07;69.35;100578.31;4935136;28;20218;-39
2023/08/27 09:14:25;;;;;;;1.27;0.80;;;;;;;19.99;68.45;100560.88;4936934;28;20183;-40
2023/08/27 09:16:51;;;;;;;0.95;0.73;;;;;;;20.17;67.81;100546.59;4941498;28;20218;-40
2023/08/27 09:19:17;;;;;;;0.80;0.75;;;;;;;20.58;67.41;100545.03;4938681;28;20265;-41
2023/08/27 09:21:43;;;;;;;1.60;1.00;;;;;;;20.62;67.70;100539.31;4938347;28;20187;-39
2023/08/27 09:24:09;;;;;;;2.17;0.90;;;;;;;20.78;67.77;100535.16;4941742;28;21097;-41
2023/08/27 09:26:34;;;;;;;0.85;0.85;;;;;;;21.07;68.46;100548.09;4941616;28;20193;-41
2023/08/27 09:29:01;;;;;;;2.00;1.10;;;;;;;21.07;67.71;100533.63;4950142;28;20190;-41
2023/08/27 09:31:43;;;;;;;2.10;0.98;;;;;;;20.98;68.45;100543.47;4941062;28;20182;-42
2023/08/27 09:34:09;;;;;;;2.20;1.00;;;;;;;21.09;68.20;100553.44;4941049;28;20190;-41
2023/08/27 09:36:36;;;;;;;1.77;1.00;;;;;;;21.93;67.50;100536.91;4940518;28;20189;-40
2023/08/27 09:39:08;;;;;;;2.05;0.93;;;;;;;21.98;66.36;100526.47;4943360;28;20218;-39
2023/08/27 09:41:36;;;;;;;2.38;1.00;;;;;;;21.46;66.67;100522.97;4940206;28;20359;-42
2023/08/27 09:44:02;;;;;;;2.05;1.00;;;;;;;21.30;66.65;100534.34;4940493;28;20535;-43
2023/08/27 09:46:27;;;;;;;1.70;0.90;;;;;;;21.22;66.65;100540.47;4942758;28;20242;-43
2023/08/27 09:48:57;;;;;;;1.75;1.20;;;;;;;21.55;68.15;100549.41;4946447;28;20293;-44
2023/08/27 09:51:23;;;;;;;2.25;1.30;;;;;;;21.34;67.40;100539.38;4945740;28;20194;-43
2023/08/27 09:53:49;;;;;;;1.42;1.00;;;;;;;21.11;67.07;100535.09;4940840;28;20544;-45
2023/08/27 09:56:18;;;;;;;2.75;1.30;;;;;;;21.16;66.47;100528.22;4941960;28;20316;-43
2023/08/27 09:58:43;;;;;;;2.88;1.30;;;;;;;21.03;66.02;100511.22;4940846;28;20206;-44
2023/08/27 10:01:09;;;;;;;2.03;0.75;;;;;;;20.96;67.00;100516.34;4940424;28;20670;-43
2023/08/27 10:03:34;;;;;;;3.13;1.10;;;;;;;21.38;68.00;100540.84;4945539;28;20182;-44
2023/08/27 10:06:03;;;;;;;1.95;1.00;;;;;;;21.81;66.47;100509.75;4941535;28;20203;-43
2023/08/27 10:08:29;;;;;;;2.05;1.00;;;;;;;21.81;65.93;100517.06;4944466;28;20200;-45
2023/08/27 10:11:10;;;;;;;2.13;1.00;;;;;;;21.50;64.83;100489.00;4943211;28;20190;-43
2023/08/27 10:13:38;;;;;;;2.33;1.20;;;;;;;21.49;64.01;100469.03;4941732;28;20183;-45
2023/08/27 10:16:04;;;;;;;1.38;1.10;;;;;;;21.31;64.47;100485.13;4941949;28;20273;-45
2023/08/27 10:18:30;;;;;;;3.30;1.20;;;;;;;21.81;63.75;100484.34;4940116;28;20281;-43
2023/08/27 10:20:58;;;;;;;1.67;0.90;;;;;;;21.55;63.74;100486.72;4945253;28;20265;-43
2023/08/27 10:23:24;;;;;;;2.03;1.10;;;;;;;21.85;63.94;100487.66;4944858;28;20211;-43
2023/08/27 10:25:51;;;;;;;1.40;1.10;;;;;;;22.21;62.96;100484.28;4941136;28;20238;-43
2023/08/27 10:28:18;;;;;;;2.90;0.90;;;;;;;21.72;61.94;100466.97;4943442;28;20719;-44
2023/08/27 10:30:46;;;;;;;2.85;1.30;;;;;;;21.72;61.81;100471.56;4945556;28;20229;-43
2023/08/27 10:33:12;;;;;;;2.25;0.93;;;;;;;21.37;63.48;100484.59;4942425;28;20182;-44
2023/08/27 10:35:40;;;;;;;2.95;1.10;;;;;;;21.07;63.32;100471.81;4939889;28;20668;-45
2023/08/27 10:38:09;;;;;;;1.58;0.90;;;;;;;21.36;64.44;100477.44;4942831;28;20238;-45
2023/08/27 10:40:37;;;;;;;2.38;1.20;;;;;;;21.70;62.74;100465.38;4939869;28;20230;-44
2023/08/27 10:43:35;;;;;;;6.25;1.35;;;;;;;21.68;61.16;100440.13;4939299;28;20261;-43
2023/08/27 10:46:17;;;;;;;1.65;1.10;;;;;;;21.52;62.83;100455.13;4940964;28;20210;-45
2023/08/27 10:48:51;;;;;;;1.52;1.20;;;;;;;21.11;63.04;100448.78;4941285;28;20226;-43
2023/08/27 10:51:18;;;;;;;2.42;0.98;;;;;;;21.03;63.49;100461.34;4939105;28;20214;-45
2023/08/27 10:53:50;;;;;;;1.88;1.10;;;;;;;20.89;65.56;100487.06;4938773;28;20177;-44
2023/08/27 10:56:36;;;;;;;1.75;1.08;;;;;;;20.87;65.83;100484.47;4937769;28;20182;-42
2023/08/27 10:59:11;;;;;;;2.08;0.93;;;;;;;20.84;65.25;100468.41;4940251;28;20926;-44
2023/08/27 11:01:58;;;;;;;2.83;1.10;;;;;;;21.06;65.01;100456.50;4941556;29;20202;-43
2023/08/27 11:04:34;;;;;;;2.55;1.13;;;;;;;21.17;64.83;100461.84;4948970;23;20219;-49
2023/08/27 11:07:07;;;;;;;1.52;1.10;;;;;;;21.58;64.41;100456.44;4940186;28;20209;-48
2023/08/27 11:09:43;;;;;;;3.40;1.02;;;;;;;21.74;63.57;100434.09;4940822;28;20197;-47
2023/08/27 11:12:33;;;;;;;1.80;0.90;;;;;;;21.83;63.54;100432.41;4940771;28;20197;-50
2023/08/27 11:15:14;;;;;;;2.15;0.98;;;;;;;22.45;64.64;100449.41;4940185;28;20222;-46
2023/08/27 11:17:40;;;;;;;1.17;1.10;;;;;;;22.13;63.56;100428.69;4947887;28;20194;-47
2023/08/27 11:20:23;;;;;;;3.22;1.33;;;;;;;22.32;61.83;100408.75;4935531;28;20290;-46